createdAt,value
2023-06-30T00:02:01.048Z,92.44
2023-06-30T00:07:24.951Z,93.24
2023-06-30T00:12:16.883Z,93.69
2023-06-30T00:17:16.856Z,95.14
2023-06-30T00:22:16.757Z,95.95
2023-06-30T00:27:16.615Z,95.64
2023-06-30T00:32:16.647Z,94.24
2023-06-30T00:37:16.481Z,93.93
2023-06-30T00:42:16.485Z,94.04
2023-06-30T00:47:16.396Z,93.74
2023-06-30T00:52:16.338Z,93.29
2023-06-30T00:57:16.270Z,92.69
2023-06-30T01:02:16.227Z,92.69
2023-06-30T01:07:16.238Z,92.08
2023-06-30T01:12:16.069Z,93.03
2023-06-30T01:17:15.982Z,93.58
2023-06-30T01:22:15.902Z,94.73
2023-06-30T01:27:15.854Z,96.28
2023-06-30T01:32:15.816Z,96.78
2023-06-30T01:37:15.705Z,96.64
2023-06-30T01:42:15.687Z,95.84
2023-06-30T01:47:15.523Z,96.44
2023-06-30T01:52:15.528Z,96.44
2023-06-30T01:57:15.438Z,96.44
2023-06-30T02:02:15.361Z,96.34
2023-06-30T02:07:15.360Z,96.48
2023-06-30T02:12:15.268Z,95.48
2023-06-30T02:17:15.209Z,95.68
2023-06-30T02:22:15.145Z,95.93
2023-06-30T02:27:15.013Z,95.83
2023-06-30T02:32:14.980Z,95.12
2023-06-30T02:37:14.937Z,95.47
2023-06-30T02:42:14.845Z,94.21
2023-06-30T02:47:14.787Z,93.11
2023-06-30T02:52:14.727Z,93.21
2023-06-30T02:57:14.599Z,92.50
2023-06-30T03:02:14.779Z,92.20
2023-06-30T03:07:14.649Z,92.95
2023-06-30T03:12:14.401Z,94.40
2023-06-30T03:17:14.382Z,95.61
2023-06-30T03:22:14.312Z,95.51
2023-06-30T03:27:14.189Z,96.32
2023-06-30T03:32:14.164Z,96.48
2023-06-30T03:37:14.096Z,95.87
2023-06-30T03:42:14.017Z,96.52
2023-06-30T03:47:13.936Z,96.92
2023-06-30T03:52:13.932Z,97.78
2023-06-30T03:57:13.853Z,97.58
2023-06-30T04:02:13.873Z,98.22
2023-06-30T04:07:13.787Z,97.62
2023-06-30T04:12:13.693Z,96.21
2023-06-30T04:17:25.055Z,95.70
2023-06-30T04:22:17.482Z,95.23
2023-06-30T04:27:17.457Z,95.78
2023-06-30T04:32:17.488Z,95.89
2023-06-30T04:37:17.315Z,94.78
2023-06-30T04:42:17.198Z,94.02
2023-06-30T04:47:17.140Z,93.96
2023-06-30T04:52:17.067Z,94.92
2023-06-30T04:57:17.036Z,94.21
2023-06-30T05:02:16.971Z,95.22
2023-06-30T05:07:16.967Z,94.98
2023-06-30T05:12:16.778Z,94.07
2023-06-30T05:17:16.883Z,93.26
2023-06-30T05:22:16.672Z,91.85
2023-06-30T05:27:16.637Z,92.96
2023-06-30T05:32:16.537Z,92.00
2023-06-30T05:37:16.477Z,90.85
2023-06-30T05:42:16.426Z,88.87
2023-06-30T05:47:16.352Z,89.98
2023-06-30T05:52:16.260Z,91.19
2023-06-30T05:57:16.193Z,90.28
2023-06-30T06:02:16.230Z,92.05
2023-06-30T06:07:16.144Z,91.34
2023-06-30T06:12:16.016Z,91.50
2023-06-30T06:17:15.962Z,90.99
2023-06-30T06:22:15.877Z,89.17
2023-06-30T06:27:15.852Z,89.98
2023-06-30T06:32:15.744Z,90.69
2023-06-30T06:37:15.708Z,90.12
2023-06-30T06:42:15.614Z,90.33
2023-06-30T06:47:15.704Z,90.88
2023-06-30T06:52:15.628Z,92.19
2023-06-30T06:57:15.512Z,91.49
2023-06-30T07:02:15.465Z,90.12
2023-06-30T07:07:15.354Z,89.52
2023-06-30T07:12:15.215Z,88.61
2023-06-30T07:17:15.165Z,88.92
2023-06-30T07:22:15.158Z,88.77
2023-06-30T07:27:15.056Z,88.51
2023-06-30T07:32:15.909Z,86.29
2023-06-30T07:37:14.911Z,83.46
2023-06-30T07:42:14.820Z,82.81
2023-06-30T07:47:14.757Z,79.85
2023-06-30T07:52:14.670Z,77.83
2023-06-30T07:57:14.605Z,78.59
2023-06-30T08:02:14.606Z,81.28
2023-06-30T08:07:14.561Z,80.07
2023-06-30T08:12:14.416Z,79.43
2023-06-30T08:17:14.394Z,82.78
2023-06-30T08:22:15.316Z,82.07
2023-06-30T08:27:14.258Z,82.87
2023-06-30T08:32:14.157Z,85.90
2023-06-30T08:37:14.092Z,83.40
2023-06-30T08:42:14.045Z,82.35
2023-06-30T08:47:14.029Z,81.35
2023-06-30T08:52:14.021Z,79.52
2023-06-30T08:57:13.859Z,79.08
2023-06-30T09:02:13.869Z,80.46
2023-06-30T09:07:13.831Z,80.43
2023-06-30T09:12:13.776Z,80.29
2023-06-30T09:17:13.699Z,77.95
2023-06-30T09:22:54.275Z,75.15
2023-06-30T09:27:14.500Z,73.58
2023-06-30T09:32:13.508Z,72.03
2023-06-30T09:37:13.307Z,66.69
2023-06-30T09:42:13.216Z,61.27
2023-06-30T09:47:13.166Z,62.34
2023-06-30T09:52:13.121Z,59.78
2023-06-30T09:57:13.042Z,60.50
2023-06-30T10:02:12.980Z,57.30
2023-06-30T10:07:12.940Z,55.31
2023-06-30T10:12:12.855Z,52.74
2023-06-30T10:17:12.834Z,53.11
2023-06-30T10:22:12.745Z,52.12
2023-06-30T10:27:12.623Z,52.17
2023-06-30T10:32:12.554Z,49.76
2023-06-30T10:37:12.521Z,49.78
2023-06-30T10:42:12.551Z,45.75
2023-06-30T10:47:12.478Z,46.31
2023-06-30T10:52:12.399Z,48.19
2023-06-30T10:57:12.281Z,48.14
2023-06-30T11:02:12.249Z,50.16
2023-06-30T11:07:12.288Z,47.39
2023-06-30T11:12:12.036Z,48.77
2023-06-30T11:17:12.044Z,52.24
2023-06-30T11:22:12.051Z,55.12
2023-06-30T11:27:11.875Z,52.47
2023-06-30T11:32:11.828Z,49.91
2023-06-30T11:37:11.803Z,52.91
2023-06-30T11:42:11.730Z,49.15
2023-06-30T11:47:11.648Z,45.46
2023-06-30T11:52:11.541Z,47.96
2023-06-30T11:57:11.440Z,52.34
2023-06-30T12:02:11.400Z,47.44
2023-06-30T12:07:11.397Z,47.74
2023-06-30T12:12:11.291Z,41.75
2023-06-30T12:17:11.234Z,45.93
2023-06-30T12:22:11.147Z,42.08
2023-06-30T12:27:11.097Z,48.38
2023-06-30T12:32:11.012Z,45.67
2023-06-30T12:37:11.029Z,45.57
2023-06-30T12:42:10.909Z,43.40
2023-06-30T12:47:10.893Z,44.45
2023-06-30T12:52:10.800Z,42.19
2023-06-30T12:57:10.647Z,43.40
2023-06-30T13:02:10.657Z,46.95
2023-06-30T13:07:10.679Z,47.37
2023-06-30T13:12:10.505Z,47.55
2023-06-30T13:17:10.416Z,43.14
2023-06-30T13:22:10.370Z,43.32
2023-06-30T13:27:10.291Z,42.64
2023-06-30T13:32:10.214Z,40.62
2023-06-30T13:37:10.176Z,43.82
2023-06-30T13:42:10.316Z,44.52
2023-06-30T13:47:10.018Z,42.23
2023-06-30T13:52:09.967Z,40.48
2023-06-30T13:57:10.123Z,44.32
2023-06-30T14:02:09.957Z,45.76
2023-06-30T14:07:09.764Z,45.17
2023-06-30T14:12:09.734Z,45.17
2023-06-30T14:17:09.645Z,43.08
2023-06-30T14:22:09.650Z,44.29
2023-06-30T14:27:09.510Z,42.41
2023-06-30T14:32:09.431Z,42.74
2023-06-30T14:37:10.242Z,42.79
2023-06-30T14:42:22.972Z,41.47
2023-06-30T14:47:10.245Z,43.70
2023-06-30T14:52:09.253Z,41.83
2023-06-30T14:57:09.146Z,41.42
2023-06-30T15:02:09.112Z,39.97
2023-06-30T15:07:10.000Z,42.51
2023-06-30T15:12:08.979Z,42.80
2023-06-30T15:17:08.886Z,41.60
2023-06-30T15:22:08.837Z,42.91
2023-06-30T15:27:08.728Z,42.03
2023-06-30T15:32:09.529Z,43.64
2023-06-30T15:37:08.605Z,43.29
2023-06-30T15:42:08.581Z,42.03
2023-06-30T15:47:08.493Z,45.24
2023-06-30T15:52:08.480Z,43.21
2023-06-30T15:57:08.319Z,44.53
2023-06-30T16:02:08.281Z,45.72
2023-06-30T16:07:08.213Z,46.31
2023-06-30T16:12:08.163Z,46.31
2023-06-30T16:17:08.180Z,44.50
2023-06-30T16:22:08.006Z,47.77
2023-06-30T16:27:08.759Z,47.21
2023-06-30T16:32:07.880Z,45.54
2023-06-30T16:37:07.835Z,46.54
2023-06-30T16:42:07.734Z,46.26
2023-06-30T16:47:07.766Z,45.89
2023-06-30T16:52:07.613Z,50.05
2023-06-30T16:57:07.556Z,46.26
2023-06-30T17:02:07.547Z,45.54
2023-06-30T17:07:07.441Z,46.84
2023-06-30T17:12:07.339Z,45.96
2023-06-30T17:17:07.391Z,46.36
2023-06-30T17:22:07.237Z,48.48
2023-06-30T17:27:07.259Z,47.28
2023-06-30T17:32:07.188Z,48.08
2023-06-30T17:37:07.145Z,47.20
2023-06-30T17:42:06.965Z,48.70
2023-06-30T17:47:06.913Z,48.50
2023-06-30T17:52:06.885Z,50.52
2023-06-30T17:57:06.748Z,51.12
2023-06-30T18:02:06.815Z,50.74
2023-06-30T18:07:06.655Z,50.54
2023-06-30T18:12:06.571Z,53.84
2023-06-30T18:17:06.546Z,53.67
2023-06-30T18:22:06.462Z,55.17
2023-06-30T18:27:06.400Z,56.29
2023-06-30T18:32:06.408Z,57.32
2023-06-30T18:37:06.333Z,56.45
2023-06-30T18:42:06.285Z,57.07
2023-06-30T18:47:06.281Z,60.31
2023-06-30T18:52:06.055Z,59.23
2023-06-30T18:57:05.999Z,61.77
2023-06-30T19:02:05.922Z,63.81
2023-06-30T19:07:05.955Z,62.93
2023-06-30T19:12:05.771Z,62.36
2023-06-30T19:17:05.821Z,65.20
2023-06-30T19:22:05.695Z,63.39
2023-06-30T19:27:05.606Z,65.03
2023-06-30T19:32:05.545Z,63.93
2023-06-30T19:37:05.451Z,63.73
2023-06-30T19:42:05.384Z,65.47
2023-06-30T19:47:05.359Z,66.10
2023-06-30T19:52:05.257Z,67.64
2023-06-30T19:57:05.218Z,67.47
2023-06-30T20:02:05.277Z,67.37
2023-06-30T20:07:05.247Z,67.47
2023-06-30T20:12:05.045Z,66.90
2023-06-30T20:17:05.036Z,67.40
2023-06-30T20:22:04.911Z,67.10
2023-06-30T20:27:04.810Z,67.63
2023-06-30T20:32:04.807Z,66.22
2023-06-30T20:37:04.674Z,65.72
2023-06-30T20:42:04.671Z,66.02
2023-06-30T20:47:04.701Z,65.55
2023-06-30T20:52:04.451Z,68.07
2023-06-30T20:57:04.407Z,70.22
2023-06-30T21:02:04.533Z,69.65
2023-06-30T21:07:04.300Z,70.69
2023-06-30T21:12:05.110Z,67.97
2023-06-30T21:17:04.132Z,69.21
2023-06-30T21:22:04.071Z,70.62
2023-06-30T21:27:04.030Z,69.82
2023-06-30T21:32:04.129Z,70.22
2023-06-30T21:37:03.910Z,69.51
2023-06-30T21:42:03.963Z,70.32
2023-06-30T21:47:03.731Z,70.93
2023-06-30T21:52:03.774Z,71.13
2023-06-30T21:57:03.575Z,71.47
2023-06-30T22:02:03.723Z,72.04
2023-06-30T22:07:03.479Z,73.08
2023-06-30T22:12:03.471Z,72.34
2023-06-30T22:17:03.356Z,71.87
2023-06-30T22:22:03.282Z,71.47
2023-06-30T22:27:03.212Z,73.49
2023-06-30T22:32:03.150Z,73.49
2023-06-30T22:37:03.089Z,72.68
2023-06-30T22:42:02.998Z,73.12
2023-06-30T22:47:02.979Z,74.13
2023-06-30T22:52:02.891Z,73.63
2023-06-30T22:57:02.909Z,73.22
2023-06-30T23:02:02.770Z,74.43
2023-06-30T23:07:02.700Z,75.07
2023-06-30T23:12:02.623Z,74.87
2023-06-30T23:17:02.734Z,75.52
2023-06-30T23:22:02.452Z,75.42
2023-06-30T23:27:02.495Z,75.62
2023-06-30T23:32:04.082Z,76.03
2023-06-30T23:37:02.401Z,75.96
2023-06-30T23:42:02.212Z,75.55
2023-06-30T23:47:02.193Z,76.32
2023-06-30T23:52:02.114Z,76.12
2023-06-30T23:57:02.145Z,76.32
